createdAt,value
2022-09-17T00:00:03.305Z,11.06
2022-09-17T00:02:30.987Z,11.07
2022-09-17T00:04:58.572Z,11.06
2022-09-17T00:07:26.125Z,11.04
2022-09-17T00:09:53.911Z,11.03
2022-09-17T00:12:21.489Z,11.03
2022-09-17T00:14:49.479Z,11.05
2022-09-17T00:17:17.086Z,11.07
2022-09-17T00:19:44.640Z,11.06
2022-09-17T00:22:13.901Z,11.04
2022-09-17T00:24:41.482Z,11.03
2022-09-17T00:27:09.100Z,11.02
2022-09-17T00:29:36.827Z,11.02
2022-09-17T00:32:04.439Z,11.01
2022-09-17T00:34:32.034Z,11.00
2022-09-17T00:36:59.561Z,11.03
2022-09-17T00:39:27.474Z,11.04
2022-09-17T00:41:55.010Z,11.02
2022-09-17T00:44:22.557Z,11.01
2022-09-17T00:46:50.401Z,10.98
2022-09-17T00:49:18.012Z,10.96
2022-09-17T00:51:46.009Z,10.94
2022-09-17T00:54:13.574Z,10.92
2022-09-17T00:56:41.125Z,10.93
2022-09-17T00:59:08.891Z,10.93
2022-09-17T01:01:36.553Z,10.92
2022-09-17T01:04:04.177Z,10.89
2022-09-17T01:06:32.150Z,10.88
2022-09-17T01:08:59.862Z,10.85
2022-09-17T01:11:27.404Z,10.84
2022-09-17T01:13:54.971Z,10.82
2022-09-17T01:16:22.962Z,10.81
2022-09-17T01:18:50.552Z,10.81
2022-09-17T01:21:18.130Z,10.79
2022-09-17T01:23:46.014Z,10.79
2022-09-17T01:26:13.639Z,10.81
2022-09-17T01:28:41.901Z,10.83
2022-09-17T01:31:09.819Z,10.81
2022-09-17T01:33:38.486Z,10.76
2022-09-17T01:36:06.250Z,10.72
2022-09-17T01:38:33.881Z,10.68
2022-09-17T01:41:01.815Z,10.64
2022-09-17T01:43:29.360Z,10.60
2022-09-17T01:45:56.945Z,10.59
2022-09-17T01:48:24.507Z,10.54
2022-09-17T01:50:52.509Z,10.52
2022-09-17T01:53:20.456Z,10.47
2022-09-17T01:55:49.287Z,10.45
2022-09-17T01:58:16.837Z,10.45
2022-09-17T02:00:45.083Z,10.45
2022-09-17T02:03:12.698Z,10.46
2022-09-17T02:05:40.632Z,10.46
2022-09-17T02:08:08.203Z,10.46
2022-09-17T02:10:35.779Z,10.44
2022-09-17T02:13:03.518Z,10.42
2022-09-17T02:15:31.092Z,10.42
2022-09-17T02:17:58.852Z,10.42
2022-09-17T02:20:26.426Z,10.41
2022-09-17T02:22:53.998Z,10.41
2022-09-17T02:25:21.499Z,10.39
2022-09-17T02:27:49.142Z,10.44
2022-09-17T02:30:17.056Z,10.44
2022-09-17T02:32:44.571Z,10.44
2022-09-17T02:35:14.035Z,10.44
2022-09-17T02:37:41.847Z,10.43
2022-09-17T02:40:09.412Z,10.43
2022-09-17T02:42:37.323Z,10.41
2022-09-17T02:45:04.918Z,10.43
2022-09-17T02:47:32.469Z,10.45
2022-09-17T02:50:00.434Z,10.50
2022-09-17T02:52:28.042Z,10.53
2022-09-17T02:54:56.445Z,10.58
2022-09-17T02:57:23.976Z,10.61
2022-09-17T02:59:51.550Z,10.63
2022-09-17T03:02:19.354Z,10.67
2022-09-17T03:04:47.624Z,10.69
2022-09-17T03:07:15.525Z,10.72
2022-09-17T03:09:43.678Z,10.75
2022-09-17T03:12:11.205Z,10.76
2022-09-17T03:14:38.807Z,10.78
2022-09-17T03:17:06.785Z,10.79
2022-09-17T03:19:34.675Z,10.81
2022-09-17T03:22:02.231Z,10.82
2022-09-17T03:24:29.776Z,10.84
2022-09-17T03:26:57.321Z,10.86
2022-09-17T03:29:24.910Z,10.86
2022-09-17T03:31:52.855Z,10.87
2022-09-17T03:34:21.090Z,10.88
2022-09-17T03:36:48.656Z,10.88
2022-09-17T03:39:17.808Z,10.89
2022-09-17T03:41:45.358Z,10.88
2022-09-17T03:44:13.257Z,10.89
2022-09-17T03:46:40.876Z,10.87
2022-09-17T03:49:09.106Z,10.81
2022-09-17T03:51:36.983Z,10.79
2022-09-17T03:54:04.559Z,10.73
2022-09-17T03:56:32.493Z,10.68
2022-09-17T03:59:00.511Z,10.64
2022-09-17T04:01:28.472Z,10.62
2022-09-17T04:03:56.219Z,10.57
2022-09-17T04:06:23.904Z,10.53
2022-09-17T04:08:51.817Z,10.54
2022-09-17T04:11:19.338Z,10.53
2022-09-17T04:13:47.016Z,10.52
2022-09-17T04:16:14.961Z,10.50
2022-09-17T04:18:42.580Z,10.49
2022-09-17T04:21:10.527Z,10.46
2022-09-17T04:23:38.378Z,10.42
2022-09-17T04:26:05.899Z,10.42
2022-09-17T04:28:33.507Z,10.41
2022-09-17T04:31:01.076Z,10.41
2022-09-17T04:33:29.060Z,10.40
2022-09-17T04:35:56.608Z,10.40
2022-09-17T04:38:24.234Z,10.42
2022-09-17T04:40:52.091Z,10.46
2022-09-17T04:43:19.656Z,10.46
2022-09-17T04:45:47.651Z,10.50
2022-09-17T04:48:15.195Z,10.49
2022-09-17T04:50:42.742Z,10.49
2022-09-17T04:53:10.251Z,10.48
2022-09-17T04:55:37.799Z,10.48
2022-09-17T04:58:05.837Z,10.47
2022-09-17T05:00:33.411Z,10.45
2022-09-17T05:03:00.979Z,10.42
2022-09-17T05:05:28.743Z,10.39
2022-09-17T05:07:56.772Z,10.41
2022-09-17T05:10:24.699Z,10.43
2022-09-17T05:12:52.282Z,10.47
2022-09-17T05:15:19.836Z,10.50
2022-09-17T05:17:47.573Z,10.51
2022-09-17T05:20:15.122Z,10.54
2022-09-17T05:22:43.032Z,10.56
2022-09-17T05:25:10.537Z,10.59
2022-09-17T05:27:38.119Z,10.62
2022-09-17T05:30:06.926Z,10.65
2022-09-17T05:32:34.448Z,10.67
2022-09-17T05:35:05.436Z,10.67
2022-09-17T05:37:33.397Z,10.64
2022-09-17T05:40:01.007Z,10.62
2022-09-17T05:42:28.619Z,10.59
2022-09-17T05:44:56.160Z,10.58
2022-09-17T05:47:23.676Z,10.57
2022-09-17T05:49:51.250Z,10.56
2022-09-17T05:52:19.465Z,10.57
2022-09-17T05:54:47.157Z,10.62
2022-09-17T05:57:16.040Z,10.62
2022-09-17T05:59:43.955Z,10.62
2022-09-17T06:02:13.239Z,10.64
2022-09-17T06:04:40.863Z,10.68
2022-09-17T06:07:09.413Z,10.74
2022-09-17T06:09:37.618Z,10.82
2022-09-17T06:12:05.654Z,10.91
2022-09-17T06:14:33.323Z,11.00
2022-09-17T06:17:01.251Z,11.10
2022-09-17T06:19:28.836Z,11.20
2022-09-17T06:21:56.383Z,11.28
2022-09-17T06:24:24.336Z,11.39
2022-09-17T06:26:51.904Z,11.48
2022-09-17T06:29:19.459Z,11.58
2022-09-17T06:31:47.383Z,11.67
2022-09-17T06:34:15.037Z,11.72
2022-09-17T06:36:43.445Z,11.78
2022-09-17T06:39:11.838Z,11.85
2022-09-17T06:41:39.454Z,11.92
2022-09-17T06:44:07.025Z,11.97
2022-09-17T06:46:34.597Z,12.00
2022-09-17T06:49:02.620Z,12.04
2022-09-17T06:51:30.165Z,12.07
2022-09-17T06:53:57.745Z,12.08
2022-09-17T06:56:25.516Z,12.07
2022-09-17T06:58:53.485Z,12.05
2022-09-17T07:01:21.464Z,12.01
2022-09-17T07:03:49.897Z,11.98
2022-09-17T07:06:17.442Z,11.94
2022-09-17T07:08:45.210Z,11.92
2022-09-17T07:11:12.794Z,11.87
2022-09-17T07:13:40.702Z,11.83
2022-09-17T07:16:08.352Z,11.82
2022-09-17T07:18:35.990Z,11.83
2022-09-17T07:21:04.537Z,11.89
2022-09-17T07:23:32.070Z,11.92
2022-09-17T07:26:00.007Z,11.91
2022-09-17T07:28:27.656Z,11.93
2022-09-17T07:30:55.805Z,11.92
2022-09-17T07:33:24.770Z,11.95
2022-09-17T07:35:52.294Z,11.97
2022-09-17T07:38:20.485Z,12.05
2022-09-17T07:40:48.092Z,12.18
2022-09-17T07:43:15.863Z,12.26
2022-09-17T07:45:43.415Z,12.28
2022-09-17T07:48:11.051Z,12.28
2022-09-17T07:50:38.971Z,12.24
2022-09-17T07:53:06.531Z,12.27
2022-09-17T07:55:34.102Z,12.39
2022-09-17T07:58:01.686Z,12.53
2022-09-17T08:00:29.277Z,12.61
2022-09-17T08:02:57.311Z,12.68
2022-09-17T08:05:25.349Z,12.74
2022-09-17T08:07:52.899Z,12.83
2022-09-17T08:10:21.853Z,12.88
2022-09-17T08:12:49.707Z,12.88
2022-09-17T08:15:17.692Z,12.94
2022-09-17T08:17:45.749Z,13.00
2022-09-17T08:20:13.563Z,13.02
2022-09-17T08:22:41.853Z,13.06
2022-09-17T08:25:10.101Z,13.13
2022-09-17T08:27:39.218Z,13.14
2022-09-17T08:30:06.792Z,13.18
2022-09-17T08:32:34.382Z,13.23
2022-09-17T08:35:02.277Z,13.28
2022-09-17T08:37:29.948Z,13.35
2022-09-17T08:39:58.130Z,13.47
2022-09-17T08:42:25.720Z,13.62
2022-09-17T08:44:55.215Z,13.73
2022-09-17T08:47:26.142Z,13.89
2022-09-17T08:49:54.089Z,13.90
2022-09-17T08:52:22.043Z,13.96
2022-09-17T08:54:49.649Z,14.04
2022-09-17T08:57:17.434Z,14.11
2022-09-17T08:59:45.011Z,14.19
2022-09-17T09:02:12.697Z,14.27
2022-09-17T09:04:40.653Z,14.45
2022-09-17T09:07:08.261Z,14.67
2022-09-17T09:09:35.890Z,14.95
2022-09-17T09:12:04.167Z,15.24
2022-09-17T09:14:31.736Z,15.25
2022-09-17T09:16:59.717Z,15.10
2022-09-17T09:19:27.525Z,14.97
2022-09-17T09:21:55.196Z,14.90
2022-09-17T09:24:23.093Z,14.90
2022-09-17T09:26:53.292Z,15.08
2022-09-17T09:29:24.404Z,15.38
2022-09-17T09:31:52.603Z,15.63
2022-09-17T09:34:20.265Z,15.75
2022-09-17T09:36:48.278Z,15.83
2022-09-17T09:39:15.984Z,15.81
2022-09-17T09:41:43.955Z,15.69
2022-09-17T09:44:11.546Z,15.58
2022-09-17T09:46:39.575Z,15.32
2022-09-17T09:49:07.575Z,15.33
2022-09-17T09:51:35.212Z,15.69
2022-09-17T09:54:04.068Z,15.98
2022-09-17T09:56:31.635Z,16.09
2022-09-17T09:58:59.321Z,16.09
2022-09-17T10:01:27.286Z,15.99
2022-09-17T10:03:58.297Z,15.98
2022-09-17T10:06:26.287Z,16.62
2022-09-17T10:08:53.860Z,16.74
2022-09-17T10:11:21.510Z,16.49
2022-09-17T10:13:49.355Z,16.07
2022-09-17T10:16:18.120Z,16.11
2022-09-17T10:18:46.191Z,17.24
2022-09-17T10:21:13.798Z,17.49
2022-09-17T10:23:41.381Z,17.65
2022-09-17T10:26:09.156Z,17.48
2022-09-17T10:28:36.764Z,17.21
2022-09-17T10:31:08.685Z,17.07
2022-09-17T10:33:37.078Z,17.59
2022-09-17T10:36:06.399Z,18.05
2022-09-17T10:38:35.015Z,18.18
2022-09-17T10:41:02.618Z,18.18
2022-09-17T10:43:30.649Z,18.07
2022-09-17T10:45:58.322Z,17.76
2022-09-17T10:48:25.933Z,17.40
2022-09-17T10:50:53.929Z,17.36
2022-09-17T10:53:21.675Z,17.55
2022-09-17T10:55:49.640Z,17.63
2022-09-17T10:58:17.240Z,17.52
2022-09-17T11:00:45.318Z,17.63
2022-09-17T11:03:13.217Z,17.75
2022-09-17T11:05:40.836Z,17.82
2022-09-17T11:08:08.836Z,17.83
2022-09-17T11:10:36.423Z,17.81
2022-09-17T11:13:04.063Z,17.73
2022-09-17T11:15:31.732Z,17.51
2022-09-17T11:17:59.328Z,17.16
2022-09-17T11:20:27.309Z,16.81
2022-09-17T11:22:55.483Z,16.11
2022-09-17T11:25:23.063Z,15.53
2022-09-17T11:27:51.079Z,15.18
2022-09-17T11:30:18.784Z,14.99
2022-09-17T11:32:46.771Z,14.89
2022-09-17T11:35:15.797Z,14.81
2022-09-17T11:37:43.650Z,14.67
2022-09-17T11:40:11.860Z,14.54
2022-09-17T11:42:39.511Z,14.45
2022-09-17T11:45:07.827Z,14.53
2022-09-17T11:47:35.387Z,14.48
2022-09-17T11:50:03.045Z,14.38
2022-09-17T11:52:30.817Z,14.60
2022-09-17T11:54:58.394Z,16.22
2022-09-17T11:57:26.395Z,17.70
2022-09-17T11:59:53.976Z,18.87
2022-09-17T12:02:22.080Z,20.21
2022-09-17T12:04:49.816Z,20.62
2022-09-17T12:07:17.833Z,20.26
2022-09-17T12:09:45.423Z,20.56
2022-09-17T12:12:31.706Z,21.27
2022-09-17T12:15:00.906Z,20.98
2022-09-17T12:17:28.583Z,20.05
2022-09-17T12:19:56.549Z,19.00
2022-09-17T12:22:24.517Z,18.19
2022-09-17T12:24:52.379Z,17.56
2022-09-17T12:27:22.049Z,17.12
2022-09-17T12:29:49.598Z,16.80
2022-09-17T12:32:17.626Z,16.54
2022-09-17T12:34:45.222Z,16.31
2022-09-17T12:37:12.922Z,16.08
2022-09-17T12:39:40.960Z,15.74
2022-09-17T12:42:08.502Z,15.49
2022-09-17T12:44:37.117Z,15.43
2022-09-17T12:47:04.723Z,15.55
2022-09-17T12:49:32.695Z,15.39
2022-09-17T12:52:00.650Z,15.18
2022-09-17T12:54:28.389Z,15.13
2022-09-17T12:56:56.334Z,15.26
2022-09-17T12:59:24.171Z,15.52
2022-09-17T13:01:51.989Z,15.74
2022-09-17T13:04:20.008Z,15.81
2022-09-17T13:06:47.633Z,15.88
2022-09-17T13:09:15.573Z,16.01
2022-09-17T13:11:43.130Z,16.12
2022-09-17T13:14:10.707Z,16.23
2022-09-17T13:16:38.430Z,16.44
2022-09-17T13:19:16.048Z,16.55
2022-09-17T13:21:44.729Z,16.71
2022-09-17T13:24:12.458Z,17.02
2022-09-17T13:26:40.656Z,17.07
2022-09-17T13:29:10.542Z,16.82
2022-09-17T13:31:38.598Z,16.02
2022-09-17T13:34:06.687Z,15.13
2022-09-17T13:36:34.683Z,14.45
2022-09-17T13:39:02.682Z,14.00
2022-09-17T13:41:30.277Z,13.78
2022-09-17T13:43:57.909Z,13.83
2022-09-17T13:46:26.024Z,14.02
2022-09-17T13:48:53.658Z,14.38
2022-09-17T13:51:21.300Z,14.88
2022-09-17T13:53:50.119Z,15.26
2022-09-17T13:56:21.346Z,15.84
2022-09-17T13:58:49.407Z,16.27
2022-09-17T14:01:17.079Z,16.41
2022-09-17T14:03:45.182Z,16.45
2022-09-17T14:06:14.938Z,16.42
2022-09-17T14:08:43.144Z,16.51
2022-09-17T14:11:11.098Z,16.47
2022-09-17T14:13:38.954Z,16.28
2022-09-17T14:16:08.273Z,16.00
2022-09-17T14:18:36.238Z,15.70
2022-09-17T14:21:05.592Z,15.40
2022-09-17T14:23:33.530Z,15.17
2022-09-17T14:26:01.117Z,15.16
2022-09-17T14:28:28.806Z,15.48
2022-09-17T14:30:56.485Z,15.74
2022-09-17T14:33:26.314Z,16.07
2022-09-17T14:35:54.320Z,16.06
2022-09-17T14:38:22.285Z,15.86
2022-09-17T14:40:49.919Z,15.67
2022-09-17T14:43:17.616Z,15.47
2022-09-17T14:45:46.995Z,15.27
2022-09-17T14:48:14.965Z,15.07
2022-09-17T14:50:42.588Z,14.90
2022-09-17T14:53:10.397Z,14.79
2022-09-17T14:55:38.043Z,14.75
2022-09-17T14:58:06.126Z,14.80
2022-09-17T15:00:34.485Z,14.92
2022-09-17T15:03:02.155Z,15.20
2022-09-17T15:05:31.855Z,15.24
2022-09-17T15:07:59.521Z,15.06
2022-09-17T15:10:27.248Z,14.72
2022-09-17T15:12:55.524Z,14.25
2022-09-17T15:15:23.121Z,13.74
2022-09-17T15:17:51.004Z,13.34
2022-09-17T15:20:18.670Z,13.12
2022-09-17T15:22:46.699Z,13.61
2022-09-17T15:25:14.675Z,13.87
2022-09-17T15:27:42.457Z,14.07
2022-09-17T15:30:10.241Z,14.27
2022-09-17T15:32:38.800Z,14.49
2022-09-17T15:35:06.467Z,14.64
2022-09-17T15:37:34.490Z,14.54
2022-09-17T15:40:02.138Z,14.30
2022-09-17T15:42:30.172Z,14.25
2022-09-17T15:44:57.882Z,14.11
2022-09-17T15:47:25.510Z,13.97
2022-09-17T15:49:53.560Z,13.87
2022-09-17T15:52:21.327Z,13.91
2022-09-17T15:54:49.024Z,14.23
2022-09-17T15:57:16.859Z,14.24
2022-09-17T15:59:44.461Z,14.15
2022-09-17T16:02:12.533Z,14.05
2022-09-17T16:04:41.273Z,13.95
2022-09-17T16:07:10.416Z,13.89
2022-09-17T16:09:38.110Z,13.92
2022-09-17T16:12:05.732Z,14.04
2022-09-17T16:14:33.704Z,14.18
2022-09-17T16:17:01.357Z,14.31
2022-09-17T16:19:29.214Z,14.47
2022-09-17T16:21:56.895Z,14.62
2022-09-17T16:24:24.459Z,14.74
2022-09-17T16:26:52.450Z,14.72
2022-09-17T16:29:21.369Z,14.64
2022-09-17T16:31:49.676Z,14.54
2022-09-17T16:34:17.305Z,14.43
2022-09-17T16:36:44.879Z,14.29
2022-09-17T16:39:12.730Z,14.16
2022-09-17T16:41:40.402Z,14.03
2022-09-17T16:44:08.039Z,13.90
2022-09-17T16:46:35.616Z,13.81
2022-09-17T16:49:03.301Z,13.73
2022-09-17T16:51:31.764Z,13.62
2022-09-17T16:53:59.522Z,13.52
2022-09-17T16:56:27.574Z,13.42
2022-09-17T16:58:55.234Z,13.29
2022-09-17T17:01:22.939Z,13.18
2022-09-17T17:03:51.272Z,13.09
2022-09-17T17:06:18.992Z,13.00
2022-09-17T17:08:46.829Z,12.91
2022-09-17T17:11:14.540Z,12.81
2022-09-17T17:13:42.151Z,12.73
2022-09-17T17:16:10.274Z,12.65
2022-09-17T17:18:38.157Z,12.57
2022-09-17T17:21:06.008Z,12.52
2022-09-17T17:23:33.608Z,12.46
2022-09-17T17:26:01.288Z,12.42
2022-09-17T17:28:29.259Z,12.38
2022-09-17T17:30:57.140Z,12.33
2022-09-17T17:33:25.099Z,12.30
2022-09-17T17:35:52.694Z,12.28
2022-09-17T17:38:20.279Z,12.26
2022-09-17T17:40:48.288Z,12.24
2022-09-17T17:43:15.887Z,12.24
2022-09-17T17:45:43.957Z,12.24
2022-09-17T17:48:11.720Z,12.25
2022-09-17T17:50:39.351Z,12.23
2022-09-17T17:53:07.346Z,12.22
2022-09-17T17:55:35.569Z,12.21
2022-09-17T17:58:03.404Z,12.20
2022-09-17T18:00:30.990Z,12.17
2022-09-17T18:02:58.667Z,12.12
2022-09-17T18:05:26.630Z,12.07
2022-09-17T18:07:54.252Z,11.99
2022-09-17T18:10:23.348Z,11.91
2022-09-17T18:12:51.248Z,11.85
2022-09-17T18:15:18.858Z,11.79
2022-09-17T18:17:48.534Z,11.73
2022-09-17T18:20:16.412Z,11.67
2022-09-17T18:22:44.498Z,11.63
2022-09-17T18:25:12.113Z,11.59
2022-09-17T18:27:39.781Z,11.58
2022-09-17T18:30:07.746Z,11.54
2022-09-17T18:32:35.407Z,11.50
2022-09-17T18:35:03.410Z,11.49
2022-09-17T18:37:30.992Z,11.45
2022-09-17T18:39:59.545Z,11.44
2022-09-17T18:42:27.824Z,11.40
2022-09-17T18:44:55.387Z,11.39
2022-09-17T18:47:23.275Z,11.38
2022-09-17T18:49:50.866Z,11.35
2022-09-17T18:52:18.576Z,11.35
2022-09-17T18:54:47.569Z,11.37
2022-09-17T18:57:15.127Z,11.39
2022-09-17T18:59:42.915Z,11.41
2022-09-17T19:02:11.008Z,11.40
2022-09-17T19:04:38.693Z,11.38
2022-09-17T19:07:06.723Z,11.37
2022-09-17T19:09:34.414Z,11.39
2022-09-17T19:12:02.004Z,11.43
2022-09-17T19:14:29.615Z,11.46
2022-09-17T19:16:57.299Z,11.51
2022-09-17T19:19:24.956Z,11.55
2022-09-17T19:21:52.596Z,11.58
2022-09-17T19:24:21.482Z,11.60
2022-09-17T19:26:51.071Z,11.61
2022-09-17T19:29:18.763Z,11.63
2022-09-17T19:31:46.776Z,11.64
2022-09-17T19:34:14.372Z,11.63
2022-09-17T19:36:42.013Z,11.62
2022-09-17T19:39:09.788Z,11.64
2022-09-17T19:41:37.792Z,11.64
2022-09-17T19:44:05.819Z,11.64
2022-09-17T19:46:33.952Z,11.64
2022-09-17T19:49:02.190Z,11.65
2022-09-17T19:51:30.069Z,11.66
2022-09-17T19:53:57.728Z,11.68
2022-09-17T19:56:25.659Z,11.69
2022-09-17T19:58:53.256Z,11.67
2022-09-17T20:01:20.993Z,11.65
2022-09-17T20:03:48.656Z,11.65
2022-09-17T20:06:16.937Z,11.62
2022-09-17T20:08:46.951Z,11.60
2022-09-17T20:11:14.916Z,11.60
2022-09-17T20:13:42.682Z,11.59
2022-09-17T20:16:10.487Z,11.60
2022-09-17T20:18:38.121Z,11.60
2022-09-17T20:21:06.083Z,11.60
2022-09-17T20:23:33.760Z,11.59
2022-09-17T20:26:01.532Z,11.60
2022-09-17T20:28:29.182Z,11.61
2022-09-17T20:30:57.248Z,11.63
2022-09-17T20:33:25.201Z,11.66
2022-09-17T20:35:52.811Z,11.67
2022-09-17T20:41:08.315Z,11.72
2022-09-17T20:43:36.261Z,11.75
2022-09-17T20:46:03.998Z,11.78
2022-09-17T20:48:31.839Z,11.81
2022-09-17T20:50:59.780Z,11.84
2022-09-17T20:53:27.355Z,11.85
2022-09-17T20:55:55.402Z,11.88
2022-09-17T20:58:23.044Z,11.92
2022-09-17T21:00:50.835Z,11.95
2022-09-17T21:03:18.516Z,11.98
2022-09-17T21:05:46.136Z,11.98
2022-09-17T21:08:14.059Z,12.00
2022-09-17T21:10:41.726Z,12.01
2022-09-17T21:13:09.608Z,12.01
2022-09-17T21:15:37.264Z,12.00
2022-09-17T21:18:04.853Z,12.01
2022-09-17T21:20:32.765Z,11.98
2022-09-17T21:23:00.346Z,11.94
2022-09-17T21:25:28.229Z,11.89
2022-09-17T21:27:55.854Z,11.85
2022-09-17T21:30:25.224Z,11.82
2022-09-17T21:32:53.795Z,11.79
2022-09-17T21:35:21.438Z,11.78
2022-09-17T21:37:49.183Z,11.74
2022-09-17T21:40:16.843Z,11.74
2022-09-17T21:42:44.504Z,11.73
2022-09-17T21:45:12.447Z,11.72
2022-09-17T21:47:40.177Z,11.70
2022-09-17T21:50:07.951Z,11.69
2022-09-17T21:52:36.053Z,11.66
2022-09-17T21:55:04.006Z,11.63
2022-09-17T21:57:31.958Z,11.61
2022-09-17T21:59:59.537Z,11.59
2022-09-17T22:02:28.016Z,11.55
2022-09-17T22:04:55.662Z,11.48
2022-09-17T22:07:23.754Z,11.41
2022-09-17T22:09:51.697Z,11.35
2022-09-17T22:12:19.316Z,11.29
2022-09-17T22:14:46.910Z,11.25
2022-09-17T22:17:15.062Z,11.21
2022-09-17T22:19:42.626Z,11.15
2022-09-17T22:22:10.183Z,11.12
2022-09-17T22:24:38.607Z,11.09
2022-09-17T22:27:06.664Z,11.06
2022-09-17T22:29:35.081Z,11.06
2022-09-17T22:32:02.631Z,11.08
2022-09-17T22:34:30.599Z,11.07
2022-09-17T22:36:59.161Z,11.06
2022-09-17T22:39:38.335Z,11.05
2022-09-17T22:42:05.868Z,11.05
2022-09-17T22:44:33.451Z,11.05
2022-09-17T22:47:01.161Z,11.06
2022-09-17T22:49:28.807Z,11.05
2022-09-17T22:51:56.336Z,11.03
2022-09-17T22:54:23.892Z,11.01
2022-09-17T22:56:51.935Z,11.00
2022-09-17T22:59:19.509Z,10.96
2022-09-17T23:01:48.671Z,10.94
2022-09-17T23:04:16.258Z,10.90
2022-09-17T23:06:43.804Z,10.86
2022-09-17T23:09:11.747Z,10.83
2022-09-17T23:11:39.336Z,10.80
2022-09-17T23:14:07.093Z,10.79
2022-09-17T23:16:34.686Z,10.76
2022-09-17T23:19:05.363Z,10.76
2022-09-17T23:21:33.285Z,10.79
2022-09-17T23:24:01.421Z,10.81
2022-09-17T23:26:29.039Z,10.85
2022-09-17T23:28:59.948Z,10.89
2022-09-17T23:31:30.158Z,10.90
2022-09-17T23:33:58.189Z,10.93
2022-09-17T23:36:25.762Z,10.95
2022-09-17T23:38:53.694Z,10.99
2022-09-17T23:41:21.260Z,11.02
2022-09-17T23:43:48.813Z,11.05
2022-09-17T23:46:17.329Z,11.08
2022-09-17T23:48:44.890Z,11.11
2022-09-17T23:51:12.651Z,11.14
2022-09-17T23:53:40.213Z,11.18
2022-09-17T23:56:07.758Z,11.21
2022-09-17T23:58:35.670Z,11.22
